Time;durP1;ratioP1;P1;durP2;ratioP2;P2;SDS_P1;SDS_P2;PMS_P1;PMS_P2;Temp;Humidity;BMP_temperature;BMP_pressure;BME280_temperature;BME280_humidity;BME280_pressure;Samples;Min_cycle;Max_cycle;Signal;HPM_P1;HPM_P2
2022/04/19 00:01:11;;;;;;;7.47;4.50;;;5.90;99.90;;;;;;5072131;28;20462;-65
2022/04/19 00:03:38;;;;;;;7.73;4.63;;;5.90;99.90;;;;;;5071696;28;20520;-64
2022/04/19 00:06:05;;;;;;;4.90;3.93;;;5.90;99.90;;;;;;5071475;28;20453;-65
2022/04/19 00:08:32;;;;;;;5.57;3.93;;;5.90;99.90;;;;;;5071719;28;20457;-64
2022/04/19 00:10:59;;;;;;;4.40;3.60;;;5.80;99.90;;;;;;5071924;28;20530;-64
2022/04/19 00:13:28;;;;;;;4.90;4.20;;;5.80;99.90;;;;;;5071725;28;20525;-64
2022/04/19 00:15:55;;;;;;;5.90;4.93;;;5.80;99.90;;;;;;5071387;28;20949;-65
2022/04/19 00:18:24;;;;;;;5.87;4.23;;;5.80;99.90;;;;;;5071776;28;20447;-65
2022/04/19 00:20:51;;;;;;;4.70;3.87;;;5.70;99.90;;;;;;5071420;28;20486;-64
2022/04/19 00:23:19;;;;;;;4.67;4.20;;;5.60;99.90;;;;;;5071391;28;20487;-65
2022/04/19 00:25:48;;;;;;;5.43;4.00;;;5.70;99.90;;;;;;5071315;28;20941;-65
2022/04/19 00:28:15;;;;;;;6.57;4.50;;;5.60;99.90;;;;;;5071599;28;20447;-65
2022/04/19 00:30:43;;;;;;;4.53;4.00;;;5.60;99.90;;;;;;5071311;28;20955;-65
2022/04/19 00:33:10;;;;;;;5.67;3.80;;;5.50;99.90;;;;;;5071394;28;20467;-66
2022/04/19 00:35:39;;;;;;;5.30;4.10;;;5.50;99.90;;;;;;5070059;28;20479;-65
2022/04/19 00:38:06;;;;;;;5.83;3.90;;;5.50;99.90;;;;;;5071342;28;20451;-67
2022/04/19 00:40:34;;;;;;;6.43;4.57;;;5.60;99.90;;;;;;5071340;28;21252;-65
2022/04/19 00:43:01;;;;;;;8.10;4.00;;;5.60;99.90;;;;;;5071071;28;20486;-65
2022/04/19 00:45:31;;;;;;;5.07;4.37;;;5.60;99.90;;;;;;5070860;28;20831;-64
2022/04/19 00:47:58;;;;;;;6.60;4.40;;;5.50;99.90;;;;;;5071026;28;21199;-65
2022/04/19 00:50:25;;;;;;;5.70;4.73;;;5.50;99.90;;;;;;5070732;28;20487;-64
2022/04/19 00:52:53;;;;;;;6.07;4.50;;;5.40;99.90;;;;;;5070772;28;20995;-65
2022/04/19 00:55:21;;;;;;;4.80;4.10;;;5.30;99.90;;;;;;5070695;28;20566;-64
2022/04/19 00:57:48;;;;;;;8.67;4.83;;;5.10;99.90;;;;;;5070930;28;20443;-64
2022/04/19 01:00:16;;;;;;;7.97;4.50;;;5.10;99.90;;;;;;5070841;28;20834;-65
2022/04/19 01:02:43;;;;;;;6.40;4.67;;;5.00;99.90;;;;;;5070746;28;20474;-66
2022/04/19 01:05:11;;;;;;;5.33;4.27;;;5.10;99.90;;;;;;5070385;28;20455;-64
2022/04/19 01:07:39;;;;;;;6.60;4.27;;;5.10;99.90;;;;;;5071104;28;20442;-65
2022/04/19 01:10:08;;;;;;;6.53;4.73;;;5.10;99.90;;;;;;5071121;28;20880;-64
2022/04/19 01:15:20;;;;;;;5.47;4.60;;;5.10;99.90;;;;;;5070437;28;20470;-65
2022/04/19 01:17:48;;;;;;;6.03;4.67;;;5.10;99.90;;;;;;5070790;28;20439;-66
2022/04/19 01:20:15;;;;;;;5.47;4.80;;;5.00;99.90;;;;;;5070374;28;20966;-65
2022/04/19 01:22:47;;;;;;;7.40;4.73;;;5.10;99.90;;;;;;5070260;28;21080;-65
2022/04/19 01:25:14;;;;;;;9.20;3.70;;;4.90;99.90;;;;;;5070232;28;20519;-65
2022/04/19 01:27:42;;;;;;;5.20;4.20;;;4.90;99.90;;;;;;5070367;28;20451;-67
2022/04/19 01:30:10;;;;;;;8.20;5.73;;;4.80;99.90;;;;;;5070270;28;20455;-65
2022/04/19 01:32:37;;;;;;;5.50;4.97;;;4.70;99.90;;;;;;5070432;28;20915;-66
2022/04/19 01:35:09;;;;;;;7.23;5.13;;;4.70;99.90;;;;;;5069844;28;20918;-66
2022/04/19 01:37:37;;;;;;;6.00;5.00;;;4.70;99.90;;;;;;5070203;28;20451;-66
2022/04/19 01:40:20;;;;;;;7.40;4.50;;;4.80;99.90;;;;;;5070108;28;20508;-65
2022/04/19 01:42:48;;;;;;;7.57;4.97;;;4.80;99.90;;;;;;5070104;28;20478;-66
2022/04/19 01:45:16;;;;;;;6.70;5.60;;;4.70;99.90;;;;;;5069775;28;20538;-66
2022/04/19 01:47:43;;;;;;;7.80;5.33;;;4.60;99.90;;;;;;5069795;28;20827;-66
2022/04/19 01:50:13;;;;;;;8.33;4.83;;;4.60;99.90;;;;;;5069989;28;20944;-66
2022/04/19 01:52:40;;;;;;;6.40;4.87;;;4.60;99.90;;;;;;5069919;28;20439;-65
2022/04/19 01:55:13;;;;;;;9.40;5.30;;;4.50;99.90;;;;;;5069472;28;20471;-66
2022/04/19 01:57:40;;;;;;;6.10;4.70;;;4.40;99.90;;;;;;5070097;28;20526;-66
2022/04/19 02:00:08;;;;;;;9.27;5.10;;;4.40;99.90;;;;;;5069954;28;20453;-65
2022/04/19 02:02:35;;;;;;;6.13;4.83;;;4.40;99.90;;;;;;5070223;28;20455;-65
2022/04/19 02:05:02;;;;;;;7.17;5.40;;;4.40;99.90;;;;;;5069588;28;20470;-65
2022/04/19 02:07:29;;;;;;;7.83;5.07;;;4.40;99.90;;;;;;5069781;28;20538;-64
2022/04/19 02:09:58;;;;;;;6.77;5.03;;;4.40;99.90;;;;;;5069826;28;20454;-66
2022/04/19 02:12:26;;;;;;;7.13;5.37;;;4.50;99.90;;;;;;5070003;28;21098;-65
2022/04/19 02:14:52;;;;;;;5.37;4.63;;;4.40;99.90;;;;;;5069594;28;20870;-64
2022/04/19 02:17:20;;;;;;;7.43;5.50;;;4.30;99.90;;;;;;5069950;28;20447;-65
2022/04/19 02:19:47;;;;;;;6.47;4.50;;;4.20;99.90;;;;;;5069716;28;20479;-64
2022/04/19 02:22:14;;;;;;;7.50;5.80;;;4.20;99.90;;;;;;5069436;28;20466;-65
2022/04/19 02:24:41;;;;;;;8.33;5.00;;;4.20;99.90;;;;;;5069213;28;20493;-65
2022/04/19 02:27:08;;;;;;;6.57;4.80;;;4.30;99.90;;;;;;5069737;28;20819;-65
2022/04/19 02:29:36;;;;;;;6.77;5.00;;;4.30;99.90;;;;;;5069432;28;20879;-65
2022/04/19 02:32:04;;;;;;;6.00;4.57;;;4.20;99.90;;;;;;5069458;28;20459;-65
2022/04/19 02:34:31;;;;;;;6.10;4.90;;;4.10;99.90;;;;;;5068961;28;20455;-66
2022/04/19 02:36:58;;;;;;;6.67;5.37;;;4.10;99.90;;;;;;5069465;28;20934;-64
2022/04/19 02:39:24;;;;;;;9.53;4.40;;;4.10;99.90;;;;;;5069449;28;20530;-64
2022/04/19 02:41:53;;;;;;;8.27;4.53;;;4.10;99.90;;;;;;5069383;28;20459;-65
2022/04/19 02:44:19;;;;;;;5.73;4.80;;;4.10;99.90;;;;;;5069016;28;21303;-64
2022/04/19 02:46:49;;;;;;;4.83;4.33;;;4.00;99.90;;;;;;5069611;28;20450;-64
2022/04/19 02:49:16;;;;;;;5.87;4.27;;;4.00;99.90;;;;;;5069298;28;20447;-65
2022/04/19 02:51:43;;;;;;;5.57;4.53;;;3.90;99.90;;;;;;5069607;28;20451;-64
2022/04/19 02:54:10;;;;;;;8.00;4.93;;;4.00;99.90;;;;;;5069228;28;20463;-65
2022/04/19 02:56:37;;;;;;;5.47;4.20;;;4.00;99.90;;;;;;5069294;28;20816;-65
2022/04/19 02:59:03;;;;;;;7.23;4.30;;;4.00;99.90;;;;;;5069770;28;20899;-65
2022/04/19 03:01:30;;;;;;;4.57;4.10;;;4.00;99.90;;;;;;5072994;28;20971;-66
2022/04/19 03:03:59;;;;;;;7.60;4.80;;;3.90;99.90;;;;;;5072976;28;20486;-66
2022/04/19 03:06:25;;;;;;;5.63;4.60;;;3.90;99.90;;;;;;5072753;28;20466;-65
2022/04/19 03:08:52;;;;;;;6.00;5.03;;;3.90;99.90;;;;;;5072997;28;20522;-65
2022/04/19 03:11:19;;;;;;;6.57;4.67;;;3.90;99.90;;;;;;5072989;28;20489;-65
2022/04/19 03:13:46;;;;;;;6.00;4.80;;;3.90;99.90;;;;;;5072788;28;20491;-65
2022/04/19 03:16:14;;;;;;;6.37;4.80;;;3.80;99.90;;;;;;5072664;28;20451;-65
2022/04/19 03:18:42;;;;;;;5.83;4.57;;;3.80;99.90;;;;;;5073322;28;20465;-65
2022/04/19 03:21:12;;;;;;;6.70;4.73;;;3.80;99.90;;;;;;5073127;28;20455;-65
2022/04/19 03:29:09;;;;;;;5.80;4.70;;;3.80;99.90;;;;;;5072801;28;20418;-65
2022/04/19 03:31:36;;;;;;;6.53;4.30;;;3.70;99.90;;;;;;5072606;28;20541;-65
2022/04/19 03:34:03;;;;;;;6.07;4.90;;;3.70;99.90;;;;;;5072326;28;20463;-65
2022/04/19 03:36:31;;;;;;;9.20;5.33;;;3.60;99.90;;;;;;5073098;28;20493;-65
2022/04/19 03:38:58;;;;;;;6.70;5.17;;;3.60;99.90;;;;;;5073490;28;20469;-65
2022/04/19 03:41:44;;;;;;;7.10;5.27;;;3.60;99.90;;;;;;5072752;28;20707;-65
2022/04/19 03:44:11;;;;;;;6.27;4.57;;;3.50;99.90;;;;;;5072183;28;20487;-65
2022/04/19 03:47:07;;;;;;;8.30;5.87;;;3.50;99.90;;;;;;5072513;28;20475;-67
2022/04/19 03:49:26;;;;;;;8.33;5.07;;;3.40;99.90;;;;;;5072014;28;20454;-66
2022/04/19 03:51:54;;;;;;;6.53;5.20;;;3.40;99.90;;;;;;5072293;28;20447;-65
2022/04/19 03:54:21;;;;;;;6.83;5.50;;;3.40;99.90;;;;;;5071703;28;20463;-65
2022/04/19 03:56:48;;;;;;;7.00;4.90;;;3.40;99.90;;;;;;5072230;28;20549;-64
2022/04/19 03:59:14;;;;;;;6.13;4.70;;;3.50;99.90;;;;;;5072206;28;20461;-67
2022/04/19 04:01:41;;;;;;;6.50;5.40;;;3.50;99.90;;;;;;5071961;28;20443;-65
2022/04/19 04:04:08;;;;;;;7.57;6.00;;;3.50;99.90;;;;;;5071371;28;20570;-64
2022/04/19 04:06:35;;;;;;;6.40;5.07;;;3.50;99.90;;;;;;5071810;28;20447;-67
2022/04/19 04:09:03;;;;;;;6.63;5.67;;;3.50;99.90;;;;;;5071835;28;20459;-64
2022/04/19 04:11:30;;;;;;;8.23;5.03;;;3.50;99.90;;;;;;5071629;28;20458;-65
2022/04/19 04:13:57;;;;;;;6.47;5.37;;;3.50;99.90;;;;;;5071749;28;20500;-65
2022/04/19 04:16:24;;;;;;;7.20;5.47;;;3.40;99.90;;;;;;5071570;28;20447;-65
2022/04/19 04:18:51;;;;;;;6.93;5.20;;;3.40;99.90;;;;;;5071954;28;20879;-64
2022/04/19 04:21:18;;;;;;;7.77;5.27;;;3.40;99.90;;;;;;5071713;28;20459;-65
2022/04/19 04:23:44;;;;;;;10.13;5.40;;;3.40;99.90;;;;;;5071569;28;20497;-65
2022/04/19 04:26:13;;;;;;;6.70;4.67;;;3.40;99.90;;;;;;5071319;28;20447;-66
2022/04/19 04:28:39;;;;;;;6.50;5.07;;;3.30;99.90;;;;;;5071460;28;20451;-65
2022/04/19 04:31:06;;;;;;;5.30;4.70;;;3.40;99.90;;;;;;5071289;28;20453;-64
2022/04/19 04:33:33;;;;;;;5.70;4.50;;;3.40;99.90;;;;;;5071452;28;20909;-65
2022/04/19 04:36:00;;;;;;;7.20;5.23;;;3.40;99.90;;;;;;5071142;28;20481;-65
2022/04/19 04:38:28;;;;;;;9.53;4.70;;;3.30;99.90;;;;;;5071294;28;20497;-65
2022/04/19 04:40:54;;;;;;;7.63;5.87;;;3.30;99.90;;;;;;5071288;28;20475;-65
2022/04/19 04:43:23;;;;;;;6.37;4.87;;;3.40;99.90;;;;;;5071064;28;20467;-66
2022/04/19 04:49:35;;;;;;;8.60;5.40;;;3.40;99.90;;;;;;5070589;28;20447;-66
2022/04/19 04:51:20;;;;;;;7.83;5.20;;;3.50;99.90;;;;;;5070873;28;20524;-66
2022/04/19 04:53:47;;;;;;;9.30;6.07;;;3.40;99.90;;;;;;5070687;28;20486;-66
2022/04/19 04:56:14;;;;;;;6.23;5.20;;;3.50;99.90;;;;;;5070512;28;20450;-63
2022/04/19 04:58:42;;;;;;;9.20;5.60;;;3.40;99.90;;;;;;5070777;28;20447;-65
2022/04/19 05:01:09;;;;;;;9.07;6.37;;;3.50;99.90;;;;;;5070721;28;20447;-66
2022/04/19 05:03:36;;;;;;;6.13;4.60;;;3.50;99.90;;;;;;5070760;28;20470;-65
2022/04/19 05:06:03;;;;;;;7.70;5.67;;;3.50;99.90;;;;;;5070489;28;20451;-63
2022/04/19 05:08:30;;;;;;;7.30;5.30;;;3.50;99.90;;;;;;5070624;28;20487;-66
2022/04/19 05:10:57;;;;;;;8.73;5.10;;;3.60;99.90;;;;;;5070908;28;20467;-64
2022/04/19 05:13:24;;;;;;;7.53;5.90;;;3.60;99.90;;;;;;5070580;28;20470;-65
2022/04/19 05:15:52;;;;;;;6.90;5.13;;;3.60;99.90;;;;;;5070376;28;20446;-65
2022/04/19 05:18:19;;;;;;;5.43;4.07;;;3.50;99.90;;;;;;5070506;28;20482;-64
2022/04/19 05:20:46;;;;;;;7.43;5.27;;;3.60;99.90;;;;;;5070399;28;20451;-65
2022/04/19 05:23:13;;;;;;;9.07;5.17;;;3.60;99.90;;;;;;5069729;28;20463;-64
2022/04/19 05:25:40;;;;;;;8.90;5.30;;;3.60;99.90;;;;;;5070363;28;20753;-64
2022/04/19 05:28:07;;;;;;;7.60;5.07;;;3.70;99.90;;;;;;5070646;28;20492;-64
2022/04/19 05:30:33;;;;;;;6.93;5.27;;;3.90;99.90;;;;;;5070641;28;20542;-62
2022/04/19 05:33:02;;;;;;;8.20;5.60;;;4.00;99.90;;;;;;5070623;28;20487;-66
2022/04/19 05:35:29;;;;;;;9.40;5.27;;;4.00;99.90;;;;;;5070012;28;20486;-63
2022/04/19 05:37:56;;;;;;;8.00;5.00;;;4.00;99.90;;;;;;5070199;28;20464;-61
2022/04/19 05:40:23;;;;;;;5.57;4.60;;;4.20;99.90;;;;;;5070417;28;20478;-64
2022/04/19 05:42:51;;;;;;;7.63;5.00;;;4.30;99.90;;;;;;5070252;28;20487;-63
2022/04/19 05:45:17;;;;;;;7.67;4.87;;;4.50;99.90;;;;;;5069734;28;20443;-63
2022/04/19 05:47:44;;;;;;;6.83;4.73;;;4.60;99.90;;;;;;5070092;28;20552;-65
2022/04/19 05:50:13;;;;;;;6.83;4.83;;;4.70;99.90;;;;;;5069818;28;20445;-66
2022/04/19 05:52:40;;;;;;;7.80;4.80;;;4.80;99.90;;;;;;5070175;28;20445;-66
2022/04/19 05:55:08;;;;;;;6.73;5.30;;;5.00;99.90;;;;;;5069594;28;20490;-64
2022/04/19 05:57:35;;;;;;;8.17;5.13;;;5.00;99.90;;;;;;5070011;28;20455;-66
2022/04/19 06:00:02;;;;;;;12.40;5.70;;;5.20;99.90;;;;;;5069846;28;20534;-65
2022/04/19 06:05:14;;;;;;;8.90;5.27;;;5.40;99.90;;;;;;5069587;28;20439;-65
2022/04/19 06:07:44;;;;;;;6.00;4.87;;;5.60;99.90;;;;;;5069903;28;20450;-65
2022/04/19 06:10:11;;;;;;;7.80;5.17;;;5.80;99.90;;;;;;5069820;28;20486;-64
2022/04/19 06:12:38;;;;;;;7.63;5.80;;;6.00;99.90;;;;;;5069732;28;20439;-64
2022/04/19 06:15:06;;;;;;;8.17;5.70;;;6.20;99.90;;;;;;5069194;28;20542;-66
2022/04/19 06:17:35;;;;;;;8.13;5.90;;;6.30;99.90;;;;;;5069785;28;20455;-65
2022/04/19 06:20:02;;;;;;;10.20;5.60;;;6.50;99.90;;;;;;5069779;28;20470;-64
2022/04/19 06:22:30;;;;;;;7.47;6.73;;;6.70;99.90;;;;;;5069531;28;20455;-65
2022/04/19 06:24:58;;;;;;;7.10;5.30;;;6.80;99.90;;;;;;5069392;28;20472;-65
2022/04/19 06:27:25;;;;;;;7.10;5.47;;;7.00;99.90;;;;;;5069522;28;20447;-65
2022/04/19 06:29:52;;;;;;;8.20;5.10;;;7.20;99.90;;;;;;5069418;28;20473;-66
2022/04/19 06:32:20;;;;;;;6.43;5.77;;;7.40;99.90;;;;;;5069449;28;20485;-65
2022/04/19 06:34:46;;;;;;;7.07;5.50;;;7.60;99.90;;;;;;5070653;28;20573;-64
2022/04/19 06:37:13;;;;;;;8.00;6.17;;;7.70;99.90;;;;;;5073756;28;20809;-64
2022/04/19 06:39:42;;;;;;;7.03;5.70;;;7.90;99.90;;;;;;5073569;28;20461;-66
2022/04/19 06:42:09;;;;;;;9.13;5.60;;;8.10;99.90;;;;;;5073411;28;20493;-65
2022/04/19 06:44:36;;;;;;;13.33;6.93;;;8.30;99.90;;;;;;5072971;28;20995;-65
2022/04/19 06:47:03;;;;;;;11.20;5.87;;;8.40;99.90;;;;;;5073696;28;20813;-64
2022/04/19 06:49:30;;;;;;;9.17;5.53;;;8.50;99.90;;;;;;5073519;28;20679;-66
2022/04/19 06:51:57;;;;;;;8.83;5.70;;;8.70;99.90;;;;;;5073340;28;20550;-65
2022/04/19 06:54:24;;;;;;;7.10;6.00;;;8.90;99.90;;;;;;5072817;28;20481;-64
2022/04/19 06:56:52;;;;;;;6.87;5.73;;;9.00;99.90;;;;;;5073109;28;20530;-64
2022/04/19 06:59:21;;;;;;;6.97;5.47;;;9.10;99.90;;;;;;5073304;28;20477;-64
2022/04/19 07:01:47;;;;;;;8.17;5.00;;;9.20;99.90;;;;;;5072995;28;20964;-65
2022/04/19 07:04:14;;;;;;;5.87;5.07;;;9.30;99.90;;;;;;5072764;28;20489;-63
2022/04/19 07:06:41;;;;;;;6.30;5.63;;;9.40;99.90;;;;;;5073067;28;20447;-65
2022/04/19 07:09:08;;;;;;;6.27;5.27;;;9.50;99.90;;;;;;5072912;28;20459;-65
2022/04/19 07:11:36;;;;;;;6.50;5.23;;;9.60;99.90;;;;;;5072795;28;20446;-65
2022/04/19 07:14:05;;;;;;;6.67;5.80;;;9.80;99.90;;;;;;5072406;28;20480;-65
2022/04/19 07:16:32;;;;;;;9.30;5.40;;;9.90;99.90;;;;;;5072884;28;20454;-65
2022/04/19 07:18:59;;;;;;;7.97;6.37;;;10.00;99.90;;;;;;5072847;28;20458;-64
2022/04/19 07:26:55;;;;;;;7.30;6.50;;;10.20;99.90;;;;;;5072808;28;20423;-65
2022/04/19 07:29:24;;;;;;;7.80;5.53;;;10.40;99.90;;;;;;5072740;28;20442;-64
2022/04/19 07:31:52;;;;;;;9.93;6.37;;;10.50;99.90;;;;;;5072682;28;21086;-64
2022/04/19 07:34:18;;;;;;;9.70;5.23;;;10.60;99.90;;;;;;5072126;28;20470;-64
2022/04/19 07:36:45;;;;;;;8.53;5.83;;;10.80;99.90;;;;;;5072494;28;20960;-65
2022/04/19 07:39:13;;;;;;;6.90;6.20;;;10.90;99.90;;;;;;5072617;28;20530;-65
2022/04/19 07:41:46;;;;;;;5.90;5.27;;;11.00;99.90;;;;;;5072805;28;20537;-64
2022/04/19 07:44:15;;;;;;;6.30;5.23;;;11.10;99.90;;;;;;5072302;28;20525;-65
2022/04/19 07:46:43;;;;;;;7.93;5.43;;;11.20;99.90;;;;;;5071942;28;20487;-66
2022/04/19 07:49:10;;;;;;;6.80;6.20;;;11.30;99.90;;;;;;5072282;28;20450;-65
2022/04/19 07:51:37;;;;;;;6.77;5.27;;;11.40;99.90;;;;;;5072208;28;20485;-65
2022/04/19 07:54:04;;;;;;;7.33;6.63;;;11.50;99.90;;;;;;5071796;28;20558;-65
2022/04/19 07:56:31;;;;;;;6.90;6.10;;;11.60;99.90;;;;;;5072104;28;20862;-65
2022/04/19 07:58:58;;;;;;;6.90;6.17;;;11.80;99.90;;;;;;5071993;28;20967;-65
2022/04/19 08:01:26;;;;;;;8.32;6.70;;;11.90;99.90;;;;;;5071712;28;20466;-65
2022/04/19 08:03:54;;;;;;;9.00;6.40;;;12.00;99.90;;;;;;5071819;28;20220;-65
2022/04/19 08:06:22;;;;;;;8.40;6.10;;;12.00;99.90;;;;;;5071695;28;20810;-65
2022/04/19 08:08:49;;;;;;;7.20;5.97;;;12.00;99.90;;;;;;5072025;28;20880;-64
2022/04/19 08:11:16;;;;;;;7.70;5.90;;;12.00;99.90;;;;;;5071908;28;20538;-66
2022/04/19 08:13:42;;;;;;;8.17;6.67;;;12.00;99.90;;;;;;5071772;28;20476;-64
2022/04/19 08:16:10;;;;;;;9.73;6.40;;;12.10;99.90;;;;;;5071537;28;20503;-64
2022/04/19 08:18:36;;;;;;;9.07;6.10;;;12.40;99.90;;;;;;5071623;28;20451;-63
2022/04/19 08:21:05;;;;;;;7.63;5.63;;;12.40;99.90;;;;;;5071561;28;20533;-65
2022/04/19 08:23:31;;;;;;;8.43;6.47;;;12.50;99.30;;;;;;5071621;28;20495;-65
2022/04/19 08:25:58;;;;;;;8.67;5.90;;;12.60;99.80;;;;;;5071354;28;20967;-65
2022/04/19 08:28:25;;;;;;;7.33;6.17;;;12.60;98.20;;;;;;5071641;28;20548;-65
2022/04/19 08:30:52;;;;;;;7.80;5.77;;;12.80;98.60;;;;;;5071461;28;20446;-65
2022/04/19 08:33:18;;;;;;;9.33;5.63;;;12.90;97.60;;;;;;5071369;28;20471;-64
2022/04/19 08:35:45;;;;;;;9.43;6.77;;;13.00;96.10;;;;;;5071024;28;21037;-65
2022/04/19 08:38:13;;;;;;;7.00;6.03;;;13.00;96.00;;;;;;5071574;28;20443;-65
2022/04/19 08:40:40;;;;;;;10.60;5.63;;;13.10;97.00;;;;;;5071394;28;20475;-65
2022/04/19 08:43:08;;;;;;;8.97;5.77;;;13.20;96.40;;;;;;5071365;28;20463;-64
2022/04/19 08:45:34;;;;;;;10.30;5.80;;;13.20;97.00;;;;;;5070961;28;20458;-64
2022/04/19 08:48:01;;;;;;;9.57;6.33;;;13.30;96.80;;;;;;5071561;28;20530;-64
2022/04/19 08:50:30;;;;;;;8.73;5.00;;;13.40;95.90;;;;;;5071560;28;20450;-64
2022/04/19 08:58:26;;;;;;;7.07;5.40;;;13.70;93.70;;;;;;5075323;28;20441;-65
2022/04/19 09:00:53;;;;;;;9.03;5.40;;;13.90;93.60;;;;;;5071625;28;20454;-65
2022/04/19 09:03:20;;;;;;;6.43;4.70;;;14.00;94.40;;;;;;5071221;28;20471;-65
2022/04/19 09:05:51;;;;;;;5.93;4.80;;;14.20;94.50;;;;;;5070510;28;20443;-65
2022/04/19 09:08:19;;;;;;;8.23;5.20;;;14.40;93.40;;;;;;5070653;28;20470;-65
2022/04/19 09:10:47;;;;;;;6.90;5.33;;;14.50;93.60;;;;;;5070539;28;20831;-65
2022/04/19 09:13:21;;;;;;;6.77;5.90;;;14.70;95.00;;;;;;5070713;28;20466;-64
2022/04/19 09:15:48;;;;;;;9.03;5.03;;;14.90;94.00;;;;;;5070202;28;20560;-64
2022/04/19 09:18:23;;;;;;;7.20;4.73;;;15.10;93.50;;;;;;5070444;28;20447;-64
2022/04/19 09:20:51;;;;;;;7.20;4.60;;;15.30;93.20;;;;;;5070374;28;20462;-63
2022/04/19 09:23:18;;;;;;;6.43;5.13;;;15.40;91.20;;;;;;5070225;28;20525;-64
2022/04/19 09:25:46;;;;;;;6.20;4.30;;;15.60;93.10;;;;;;5070356;28;21137;-63
2022/04/19 09:28:18;;;;;;;5.30;4.60;;;16.00;89.30;;;;;;5070259;28;21134;-64
2022/04/19 09:30:48;;;;;;;4.90;3.67;;;16.20;84.90;;;;;;5070340;28;20453;-64
2022/04/19 09:33:17;;;;;;;5.93;3.40;;;16.40;82.20;;;;;;5070240;28;20470;-64
2022/04/19 09:35:45;;;;;;;5.17;3.77;;;16.60;79.80;;;;;;5069763;28;20483;-64
2022/04/19 09:38:13;;;;;;;13.07;4.70;;;17.20;77.70;;;;;;5070225;28;20933;-64
2022/04/19 09:40:42;;;;;;;6.00;4.53;;;17.40;78.30;;;;;;5070431;28;20450;-64
2022/04/19 09:43:16;;;;;;;5.90;4.07;;;17.60;77.70;;;;;;5070316;28;20463;-64
2022/04/19 09:45:58;;;;;;;6.57;4.10;;;17.90;74.90;;;;;;5070056;28;20439;-63
2022/04/19 09:48:26;;;;;;;6.50;4.13;;;17.90;71.90;;;;;;5070437;28;21280;-65
2022/04/19 09:50:57;;;;;;;8.50;4.33;;;18.50;69.70;;;;;;5070494;28;20450;-64
2022/04/19 09:53:26;;;;;;;5.83;4.10;;;18.80;68.70;;;;;;5070251;28;20471;-64
2022/04/19 09:55:54;;;;;;;7.67;4.70;;;18.50;64.90;;;;;;5069635;28;20562;-64
2022/04/19 09:58:24;;;;;;;5.70;3.90;;;18.40;64.70;;;;;;5069803;28;20458;-63
2022/04/19 10:00:51;;;;;;;5.10;4.00;;;18.30;64.30;;;;;;5070096;28;20546;-65
2022/04/19 10:08:52;;;;;;;4.60;3.20;;;18.00;61.00;;;;;;5068394;28;20467;-65
2022/04/19 10:11:19;;;;;;;4.73;3.30;;;18.00;62.10;;;;;;5069748;28;20435;-64
2022/04/19 10:13:47;;;;;;;6.50;4.33;;;18.10;57.40;;;;;;5069495;28;20473;-64
2022/04/19 10:16:16;;;;;;;7.27;4.03;;;17.80;58.70;;;;;;5069252;28;21005;-65
2022/04/19 10:18:45;;;;;;;4.73;4.07;;;17.70;59.10;;;;;;5069610;28;20449;-64
2022/04/19 10:21:16;;;;;;;5.40;4.00;;;18.20;61.00;;;;;;5069448;28;20458;-65
2022/04/19 10:23:44;;;;;;;5.20;3.93;;;18.50;64.20;;;;;;5069675;28;20463;-64
2022/04/19 10:26:20;;;;;;;5.27;3.97;;;18.50;60.10;;;;;;5069249;28;20447;-66
2022/04/19 10:28:50;;;;;;;4.93;4.17;;;18.50;57.50;;;;;;5069717;28;20446;-65
2022/04/19 10:31:26;;;;;;;7.10;5.13;;;18.60;59.50;;;;;;5069546;28;20858;-64
2022/04/19 10:33:54;;;;;;;5.23;4.63;;;19.00;60.50;;;;;;5069427;28;20816;-64
2022/04/19 10:36:23;;;;;;;6.87;4.23;;;19.30;58.90;;;;;;5069089;28;20479;-65
2022/04/19 10:39:21;;;;;;;5.53;4.13;;;19.80;60.00;;;;;;5069577;28;20504;-65
2022/04/19 10:41:52;;;;;;;7.93;5.33;;;20.50;57.20;;;;;;5069321;28;20447;-65
2022/04/19 10:44:28;;;;;;;5.93;5.33;;;19.40;55.30;;;;;;5068972;28;20475;-66
2022/04/19 10:47:11;;;;;;;4.90;4.40;;;18.90;56.20;;;;;;5069629;28;20526;-65
2022/04/19 10:49:49;;;;;;;8.00;4.47;;;19.30;59.50;;;;;;5069419;28;20475;-65
2022/04/19 10:52:50;;;;;;;6.43;4.87;;;20.00;61.10;;;;;;5069196;28;20450;-65
2022/04/19 10:55:28;;;;;;;5.90;4.73;;;19.90;58.30;;;;;;5069221;28;20434;-65
2022/04/19 10:58:08;;;;;;;6.67;4.40;;;20.30;58.40;;;;;;5069504;28;20525;-64
2022/04/19 11:00:42;;;;;;;7.10;4.63;;;20.10;56.10;;;;;;5069348;28;20537;-66
2022/04/19 11:03:10;;;;;;;5.70;3.80;;;19.90;55.70;;;;;;5069039;28;20474;-65
2022/04/19 11:05:43;;;;;;;5.87;4.47;;;20.30;56.10;;;;;;5069087;28;20470;-64
2022/04/19 11:08:23;;;;;;;6.47;5.30;;;20.30;56.20;;;;;;5069377;28;20536;-64
2022/04/19 11:10:51;;;;;;;6.60;5.00;;;20.60;56.10;;;;;;5069149;28;21015;-65
2022/04/19 11:13:19;;;;;;;5.80;4.50;;;20.60;55.60;;;;;;5069062;28;20467;-66
2022/04/19 11:15:57;;;;;;;5.63;4.80;;;20.60;57.40;;;;;;5068665;28;20483;-65
2022/04/19 11:18:25;;;;;;;7.50;6.00;;;20.60;54.50;;;;;;5069150;28;20468;-64
2022/04/19 11:20:53;;;;;;;6.37;4.70;;;20.60;54.70;;;;;;5070805;28;20481;-66
2022/04/19 11:23:21;;;;;;;7.63;4.67;;;20.50;54.70;;;;;;5072838;28;20579;-64
2022/04/19 11:25:49;;;;;;;5.80;4.93;;;21.30;55.00;;;;;;5072455;28;20622;-65
2022/04/19 11:28:24;;;;;;;9.43;6.30;;;21.30;52.20;;;;;;5072493;28;20461;-66
2022/04/19 11:31:12;;;;;;;5.83;4.40;;;21.20;52.80;;;;;;5072821;28;20554;-67
2022/04/19 11:33:39;;;;;;;5.97;4.60;;;20.80;51.70;;;;;;5072603;28;20463;-64
2022/04/19 11:36:07;;;;;;;4.97;4.33;;;20.50;52.00;;;;;;5072236;28;20862;-65
2022/04/19 11:38:36;;;;;;;6.77;4.67;;;20.10;51.80;;;;;;5072350;28;20443;-65
2022/04/19 11:46:45;;;;;;;6.73;4.57;;;20.80;53.20;;;;;;5072419;28;20410;-65
2022/04/19 11:49:32;;;;;;;6.70;5.40;;;21.10;51.50;;;;;;5072308;28;20445;-66
2022/04/19 11:52:01;;;;;;;6.43;4.37;;;21.80;50.80;;;;;;5072463;28;20526;-65
2022/04/19 11:54:29;;;;;;;7.83;4.20;;;21.50;50.00;;;;;;5072155;28;20467;-65
2022/04/19 11:56:57;;;;;;;6.80;4.50;;;21.30;49.30;;;;;;5072408;28;20486;-65
2022/04/19 11:59:28;;;;;;;8.80;5.57;;;21.30;50.50;;;;;;5072358;28;20531;-67
2022/04/19 12:01:57;;;;;;;7.63;5.40;;;21.40;50.00;;;;;;5072838;28;20451;-64
2022/04/19 12:04:24;;;;;;;5.83;4.73;;;21.70;50.50;;;;;;5072009;28;20543;-65
2022/04/19 12:06:53;;;;;;;6.70;4.47;;;21.40;50.70;;;;;;5072175;28;20447;-64
2022/04/19 12:09:22;;;;;;;6.00;4.67;;;21.50;50.30;;;;;;5072160;28;20447;-64
2022/04/19 12:11:49;;;;;;;5.60;4.70;;;21.80;50.40;;;;;;5071812;28;20446;-67
2022/04/19 12:14:27;;;;;;;7.13;5.10;;;22.90;51.30;;;;;;5071747;28;20473;-65
2022/04/19 12:16:59;;;;;;;7.30;5.30;;;23.60;48.70;;;;;;5071674;28;20481;-64
2022/04/19 12:19:34;;;;;;;7.07;5.53;;;23.70;48.90;;;;;;5071800;28;20443;-65
2022/04/19 12:22:02;;;;;;;8.20;5.23;;;23.20;50.70;;;;;;5071522;28;20524;-66
2022/04/19 12:24:31;;;;;;;8.37;5.33;;;24.30;51.60;;;;;;5071119;28;20474;-65
2022/04/19 12:27:05;;;;;;;8.43;5.37;;;24.90;46.60;;;;;;5071730;28;20513;-65
2022/04/19 12:29:33;;;;;;;6.43;5.73;;;25.40;47.80;;;;;;5071611;28;20500;-65
2022/04/19 12:32:03;;;;;;;28.03;7.90;;;24.30;45.90;;;;;;5071319;28;20451;-64
2022/04/19 12:34:34;;;;;;;34.30;7.70;;;24.30;47.40;;;;;;5070944;28;20498;-65
2022/04/19 12:37:07;;;;;;;15.63;5.67;;;24.60;48.30;;;;;;5071245;28;20540;-65
2022/04/19 12:39:34;;;;;;;7.70;5.23;;;24.40;47.00;;;;;;5071545;28;20450;-66
2022/04/19 12:42:07;;;;;;;9.00;5.60;;;25.80;49.40;;;;;;5071438;28;20447;-66
2022/04/19 12:44:35;;;;;;;6.77;5.33;;;26.80;46.40;;;;;;5071055;28;20497;-65
2022/04/19 12:47:11;;;;;;;7.70;5.33;;;28.20;45.40;;;;;;5071171;28;20443;-65
2022/04/19 12:49:45;;;;;;;6.40;5.37;;;28.10;42.30;;;;;;5071511;28;20462;-65
2022/04/19 12:52:13;;;;;;;7.73;5.67;;;26.90;42.00;;;;;;5071261;28;20450;-65
2022/04/19 12:54:41;;;;;;;7.73;6.10;;;25.60;43.60;;;;;;5070767;28;20471;-65
2022/04/19 12:57:13;;;;;;;8.90;5.27;;;25.50;43.50;;;;;;5070878;28;20486;-65
2022/04/19 12:59:40;;;;;;;7.93;5.50;;;24.20;44.60;;;;;;5070910;28;20956;-65
2022/04/19 13:02:08;;;;;;;7.03;5.40;;;24.10;44.00;;;;;;5070395;28;20461;-67
2022/04/19 13:04:36;;;;;;;13.30;5.90;;;24.20;45.30;;;;;;5070538;28;20307;-66
2022/04/19 13:12:31;;;;;;;9.17;6.10;;;24.50;46.00;;;;;;5070894;28;20418;-65
2022/04/19 13:14:59;;;;;;;6.50;5.80;;;24.00;46.00;;;;;;5070467;28;20475;-65
2022/04/19 13:17:30;;;;;;;7.40;5.40;;;25.30;48.70;;;;;;5070651;28;20491;-64
2022/04/19 13:19:57;;;;;;;8.13;5.80;;;26.50;44.10;;;;;;5070495;28;20500;-64
2022/04/19 13:22:24;;;;;;;5.30;4.47;;;27.10;41.70;;;;;;5070312;28;20451;-64
2022/04/19 13:24:51;;;;;;;5.67;5.00;;;27.90;42.30;;;;;;5069810;28;20474;-65
2022/04/19 13:27:18;;;;;;;9.00;5.50;;;27.20;40.70;;;;;;5070527;28;20446;-65
2022/04/19 13:29:45;;;;;;;7.67;4.90;;;26.50;42.30;;;;;;5070506;28;20461;-64
2022/04/19 13:32:13;;;;;;;7.80;4.83;;;25.70;42.40;;;;;;5052664;28;20526;-66
2022/04/19 13:34:41;;;;;;;5.40;4.60;;;25.90;44.00;;;;;;5069923;28;20546;-65
2022/04/19 13:37:09;;;;;;;5.90;4.10;;;25.60;43.50;;;;;;5070064;28;20482;-65
2022/04/19 13:39:36;;;;;;;6.43;4.73;;;26.00;43.40;;;;;;5070034;28;20568;-65
2022/04/19 13:42:03;;;;;;;6.27;5.67;;;26.40;41.70;;;;;;5070255;28;20555;-67